sensor_id;sensor_type;location;lat;lon;timestamp;P1;durP1;ratioP1;P2;durP2;ratioP2
908;SDS011;441;51.192;6.788;2022-09-01T00:00:03;2.13;;;1.70;;
908;SDS011;441;51.192;6.788;2022-09-01T00:02:38;2.17;;;1.90;;
908;SDS011;441;51.192;6.788;2022-09-01T00:05:07;1.70;;;1.60;;
908;SDS011;441;51.192;6.788;2022-09-01T00:07:34;4.93;;;1.80;;
908;SDS011;441;51.192;6.788;2022-09-01T00:10:02;1.73;;;1.63;;
908;SDS011;441;51.192;6.788;2022-09-01T00:12:32;2.00;;;1.50;;
908;SDS011;441;51.192;6.788;2022-09-01T00:14:59;1.77;;;1.67;;
908;SDS011;441;51.192;6.788;2022-09-01T00:17:26;1.60;;;1.50;;
908;SDS011;441;51.192;6.788;2022-09-01T00:19:56;3.23;;;2.13;;
908;SDS011;441;51.192;6.788;2022-09-01T00:22:23;1.60;;;1.47;;
908;SDS011;441;51.192;6.788;2022-09-01T00:24:50;1.90;;;1.47;;
908;SDS011;441;51.192;6.788;2022-09-01T00:27:17;1.60;;;1.60;;
908;SDS011;441;51.192;6.788;2022-09-01T00:29:44;2.00;;;1.57;;
908;SDS011;441;51.192;6.788;2022-09-01T00:32:11;2.30;;;2.10;;
908;SDS011;441;51.192;6.788;2022-09-01T00:34:38;2.13;;;1.70;;
908;SDS011;441;51.192;6.788;2022-09-01T00:37:07;1.63;;;1.53;;
908;SDS011;441;51.192;6.788;2022-09-01T00:39:34;2.60;;;2.10;;
908;SDS011;441;51.192;6.788;2022-09-01T00:42:01;1.77;;;1.60;;
908;SDS011;441;51.192;6.788;2022-09-01T00:44:28;4.20;;;1.90;;
908;SDS011;441;51.192;6.788;2022-09-01T00:46:55;2.33;;;2.23;;
908;SDS011;441;51.192;6.788;2022-09-01T00:49:23;2.00;;;1.90;;
908;SDS011;441;51.192;6.788;2022-09-01T00:51:54;1.40;;;1.40;;
908;SDS011;441;51.192;6.788;2022-09-01T00:54:33;2.53;;;2.43;;
908;SDS011;441;51.192;6.788;2022-09-01T00:57:04;2.10;;;2.00;;
908;SDS011;441;51.192;6.788;2022-09-01T00:59:31;2.13;;;2.03;;
908;SDS011;441;51.192;6.788;2022-09-01T01:01:58;2.20;;;1.90;;
908;SDS011;441;51.192;6.788;2022-09-01T01:04:25;2.30;;;2.20;;
908;SDS011;441;51.192;6.788;2022-09-01T01:06:54;1.70;;;1.60;;
908;SDS011;441;51.192;6.788;2022-09-01T01:09:26;1.67;;;1.57;;
908;SDS011;441;51.192;6.788;2022-09-01T01:11:57;2.10;;;1.90;;
908;SDS011;441;51.192;6.788;2022-09-01T01:14:24;2.30;;;1.70;;
908;SDS011;441;51.192;6.788;2022-09-01T01:16:55;1.90;;;1.80;;
908;SDS011;441;51.192;6.788;2022-09-01T01:19:26;1.77;;;1.67;;
908;SDS011;441;51.192;6.788;2022-09-01T01:22:23;3.23;;;1.93;;
908;SDS011;441;51.192;6.788;2022-09-01T01:25:14;1.70;;;1.63;;
908;SDS011;441;51.192;6.788;2022-09-01T01:27:43;1.90;;;1.70;;
908;SDS011;441;51.192;6.788;2022-09-01T01:30:10;2.60;;;1.83;;
908;SDS011;441;51.192;6.788;2022-09-01T01:32:38;2.20;;;1.93;;
908;SDS011;441;51.192;6.788;2022-09-01T01:35:08;2.67;;;2.20;;
908;SDS011;441;51.192;6.788;2022-09-01T01:37:38;2.43;;;1.77;;
908;SDS011;441;51.192;6.788;2022-09-01T01:40:11;1.70;;;1.60;;
908;SDS011;441;51.192;6.788;2022-09-01T01:42:42;2.30;;;2.10;;
908;SDS011;441;51.192;6.788;2022-09-01T01:45:10;1.50;;;1.50;;
908;SDS011;441;51.192;6.788;2022-09-01T01:47:41;1.80;;;1.70;;
908;SDS011;441;51.192;6.788;2022-09-01T01:50:10;1.80;;;1.70;;
908;SDS011;441;51.192;6.788;2022-09-01T01:52:38;4.30;;;2.20;;
908;SDS011;441;51.192;6.788;2022-09-01T01:55:06;1.93;;;1.83;;
908;SDS011;441;51.192;6.788;2022-09-01T01:57:36;2.50;;;2.37;;
908;SDS011;441;51.192;6.788;2022-09-01T02:00:07;1.70;;;1.60;;
908;SDS011;441;51.192;6.788;2022-09-01T02:02:35;1.67;;;1.57;;
908;SDS011;441;51.192;6.788;2022-09-01T02:05:04;2.13;;;1.67;;
908;SDS011;441;51.192;6.788;2022-09-01T02:07:31;1.80;;;1.70;;
908;SDS011;441;51.192;6.788;2022-09-01T02:09:58;1.80;;;1.70;;
908;SDS011;441;51.192;6.788;2022-09-01T02:12:25;1.40;;;1.40;;
908;SDS011;441;51.192;6.788;2022-09-01T02:14:52;2.23;;;1.93;;
908;SDS011;441;51.192;6.788;2022-09-01T02:17:22;2.13;;;2.03;;
908;SDS011;441;51.192;6.788;2022-09-01T02:19:51;2.30;;;2.10;;
908;SDS011;441;51.192;6.788;2022-09-01T02:22:20;2.80;;;1.63;;
908;SDS011;441;51.192;6.788;2022-09-01T02:24:47;1.50;;;1.40;;
908;SDS011;441;51.192;6.788;2022-09-01T02:27:16;1.90;;;1.80;;
908;SDS011;441;51.192;6.788;2022-09-01T02:29:46;4.50;;;1.70;;
908;SDS011;441;51.192;6.788;2022-09-01T02:32:15;2.10;;;2.00;;
908;SDS011;441;51.192;6.788;2022-09-01T02:34:47;2.13;;;2.03;;
908;SDS011;441;51.192;6.788;2022-09-01T02:37:18;1.97;;;1.87;;
908;SDS011;441;51.192;6.788;2022-09-01T02:39:49;1.40;;;1.30;;
908;SDS011;441;51.192;6.788;2022-09-01T02:42:17;1.77;;;1.67;;
908;SDS011;441;51.192;6.788;2022-09-01T02:44:52;2.27;;;2.07;;
908;SDS011;441;51.192;6.788;2022-09-01T02:47:20;2.20;;;2.10;;
908;SDS011;441;51.192;6.788;2022-09-01T02:49:48;1.87;;;1.77;;
908;SDS011;441;51.192;6.788;2022-09-01T02:52:16;1.73;;;1.53;;
908;SDS011;441;51.192;6.788;2022-09-01T02:54:44;1.93;;;1.70;;
908;SDS011;441;51.192;6.788;2022-09-01T02:57:13;2.57;;;2.20;;
908;SDS011;441;51.192;6.788;2022-09-01T02:59:40;1.70;;;1.60;;
908;SDS011;441;51.192;6.788;2022-09-01T03:02:08;1.70;;;1.53;;
908;SDS011;441;51.192;6.788;2022-09-01T03:04:35;2.57;;;2.37;;
908;SDS011;441;51.192;6.788;2022-09-01T03:07:04;1.70;;;1.60;;
908;SDS011;441;51.192;6.788;2022-09-01T03:09:32;2.03;;;1.73;;
908;SDS011;441;51.192;6.788;2022-09-01T03:12:01;2.50;;;2.00;;
908;SDS011;441;51.192;6.788;2022-09-01T03:14:31;2.17;;;2.07;;
908;SDS011;441;51.192;6.788;2022-09-01T03:16:58;3.80;;;2.07;;
908;SDS011;441;51.192;6.788;2022-09-01T03:19:25;1.90;;;1.80;;
908;SDS011;441;51.192;6.788;2022-09-01T03:22:07;2.07;;;1.97;;
908;SDS011;441;51.192;6.788;2022-09-01T03:24:34;1.60;;;1.60;;
908;SDS011;441;51.192;6.788;2022-09-01T03:27:01;2.40;;;2.30;;
908;SDS011;441;51.192;6.788;2022-09-01T03:29:28;2.07;;;1.90;;
908;SDS011;441;51.192;6.788;2022-09-01T03:31:55;2.10;;;2.00;;
908;SDS011;441;51.192;6.788;2022-09-01T03:34:21;1.87;;;1.80;;
908;SDS011;441;51.192;6.788;2022-09-01T03:36:48;1.73;;;1.70;;
908;SDS011;441;51.192;6.788;2022-09-01T03:39:17;1.37;;;1.37;;
908;SDS011;441;51.192;6.788;2022-09-01T03:41:45;4.77;;;1.50;;
908;SDS011;441;51.192;6.788;2022-09-01T03:44:12;2.03;;;1.93;;
908;SDS011;441;51.192;6.788;2022-09-01T03:46:40;2.50;;;2.40;;
908;SDS011;441;51.192;6.788;2022-09-01T03:49:08;3.30;;;3.07;;
908;SDS011;441;51.192;6.788;2022-09-01T03:51:39;2.90;;;1.90;;
908;SDS011;441;51.192;6.788;2022-09-01T03:54:07;2.37;;;2.27;;
908;SDS011;441;51.192;6.788;2022-09-01T03:56:36;3.70;;;1.63;;
908;SDS011;441;51.192;6.788;2022-09-01T03:59:05;2.03;;;1.93;;
908;SDS011;441;51.192;6.788;2022-09-01T04:01:32;1.80;;;1.70;;
908;SDS011;441;51.192;6.788;2022-09-01T04:04:07;4.13;;;2.00;;
908;SDS011;441;51.192;6.788;2022-09-01T04:06:37;4.73;;;1.80;;
908;SDS011;441;51.192;6.788;2022-09-01T04:09:05;2.00;;;1.90;;
908;SDS011;441;51.192;6.788;2022-09-01T04:11:32;2.60;;;2.40;;
908;SDS011;441;51.192;6.788;2022-09-01T04:14:01;1.87;;;1.77;;
908;SDS011;441;51.192;6.788;2022-09-01T04:16:29;2.10;;;2.00;;
908;SDS011;441;51.192;6.788;2022-09-01T04:19:15;2.27;;;2.17;;
908;SDS011;441;51.192;6.788;2022-09-01T04:21:50;1.90;;;1.70;;
908;SDS011;441;51.192;6.788;2022-09-01T04:24:19;2.13;;;1.90;;
908;SDS011;441;51.192;6.788;2022-09-01T04:26:48;2.03;;;1.93;;
908;SDS011;441;51.192;6.788;2022-09-01T04:29:18;2.07;;;1.97;;
908;SDS011;441;51.192;6.788;2022-09-01T04:31:48;2.10;;;2.00;;
908;SDS011;441;51.192;6.788;2022-09-01T04:34:16;2.33;;;2.13;;
908;SDS011;441;51.192;6.788;2022-09-01T04:36:43;2.30;;;2.20;;
908;SDS011;441;51.192;6.788;2022-09-01T04:39:11;2.47;;;2.27;;
908;SDS011;441;51.192;6.788;2022-09-01T04:41:38;2.37;;;2.20;;
908;SDS011;441;51.192;6.788;2022-09-01T04:44:11;4.13;;;2.80;;
908;SDS011;441;51.192;6.788;2022-09-01T04:46:44;5.90;;;3.20;;
908;SDS011;441;51.192;6.788;2022-09-01T04:49:15;3.67;;;2.83;;
908;SDS011;441;51.192;6.788;2022-09-01T04:51:47;10.67;;;3.30;;
908;SDS011;441;51.192;6.788;2022-09-01T04:54:15;6.90;;;3.63;;
908;SDS011;441;51.192;6.788;2022-09-01T04:56:43;12.60;;;4.97;;
908;SDS011;441;51.192;6.788;2022-09-01T04:59:13;11.20;;;4.73;;
908;SDS011;441;51.192;6.788;2022-09-01T05:01:40;11.33;;;5.67;;
908;SDS011;441;51.192;6.788;2022-09-01T05:04:12;8.80;;;5.17;;
908;SDS011;441;51.192;6.788;2022-09-01T05:06:42;6.03;;;4.60;;
908;SDS011;441;51.192;6.788;2022-09-01T05:09:10;9.47;;;4.13;;
908;SDS011;441;51.192;6.788;2022-09-01T05:11:38;8.90;;;4.73;;
908;SDS011;441;51.192;6.788;2022-09-01T05:14:09;6.40;;;3.43;;
908;SDS011;441;51.192;6.788;2022-09-01T05:16:37;4.50;;;3.00;;
908;SDS011;441;51.192;6.788;2022-09-01T05:19:05;6.20;;;3.30;;
908;SDS011;441;51.192;6.788;2022-09-01T05:21:40;9.43;;;3.53;;
908;SDS011;441;51.192;6.788;2022-09-01T05:24:10;7.80;;;3.70;;
908;SDS011;441;51.192;6.788;2022-09-01T05:26:40;5.60;;;3.80;;
908;SDS011;441;51.192;6.788;2022-09-01T05:29:08;6.93;;;3.60;;
908;SDS011;441;51.192;6.788;2022-09-01T05:31:38;5.27;;;3.53;;
908;SDS011;441;51.192;6.788;2022-09-01T05:34:06;4.10;;;3.23;;
908;SDS011;441;51.192;6.788;2022-09-01T05:36:35;5.73;;;3.53;;
908;SDS011;441;51.192;6.788;2022-09-01T05:39:07;3.77;;;3.47;;
908;SDS011;441;51.192;6.788;2022-09-01T05:41:36;4.23;;;2.83;;
908;SDS011;441;51.192;6.788;2022-09-01T05:44:04;2.53;;;2.33;;
908;SDS011;441;51.192;6.788;2022-09-01T05:46:32;4.17;;;3.00;;
908;SDS011;441;51.192;6.788;2022-09-01T05:49:00;4.60;;;2.90;;
908;SDS011;441;51.192;6.788;2022-09-01T05:51:27;3.43;;;2.27;;
908;SDS011;441;51.192;6.788;2022-09-01T05:54:00;2.63;;;2.37;;
908;SDS011;441;51.192;6.788;2022-09-01T05:56:30;7.50;;;2.60;;
908;SDS011;441;51.192;6.788;2022-09-01T05:58:58;4.40;;;2.00;;
908;SDS011;441;51.192;6.788;2022-09-01T06:01:27;3.57;;;3.23;;
908;SDS011;441;51.192;6.788;2022-09-01T06:03:58;2.30;;;2.20;;
908;SDS011;441;51.192;6.788;2022-09-01T06:06:28;3.17;;;2.40;;
908;SDS011;441;51.192;6.788;2022-09-01T06:09:02;2.40;;;2.20;;
908;SDS011;441;51.192;6.788;2022-09-01T06:11:31;3.50;;;2.20;;
908;SDS011;441;51.192;6.788;2022-09-01T06:13:58;2.40;;;1.90;;
908;SDS011;441;51.192;6.788;2022-09-01T06:16:26;2.83;;;2.40;;
908;SDS011;441;51.192;6.788;2022-09-01T06:18:55;2.20;;;2.10;;
908;SDS011;441;51.192;6.788;2022-09-01T06:21:24;3.07;;;2.30;;
908;SDS011;441;51.192;6.788;2022-09-01T06:23:53;3.13;;;1.80;;
908;SDS011;441;51.192;6.788;2022-09-01T06:26:21;3.97;;;2.60;;
908;SDS011;441;51.192;6.788;2022-09-01T06:28:54;1.93;;;1.83;;
908;SDS011;441;51.192;6.788;2022-09-01T06:31:22;2.20;;;1.80;;
908;SDS011;441;51.192;6.788;2022-09-01T06:33:50;1.90;;;1.80;;
908;SDS011;441;51.192;6.788;2022-09-01T06:36:18;3.60;;;2.20;;
908;SDS011;441;51.192;6.788;2022-09-01T06:38:47;1.80;;;1.70;;
908;SDS011;441;51.192;6.788;2022-09-01T06:41:15;1.90;;;1.80;;
908;SDS011;441;51.192;6.788;2022-09-01T06:43:43;1.93;;;1.83;;
908;SDS011;441;51.192;6.788;2022-09-01T06:46:12;2.07;;;1.97;;
908;SDS011;441;51.192;6.788;2022-09-01T06:48:39;1.77;;;1.67;;
908;SDS011;441;51.192;6.788;2022-09-01T06:51:11;4.17;;;2.10;;
908;SDS011;441;51.192;6.788;2022-09-01T06:53:39;2.60;;;2.40;;
908;SDS011;441;51.192;6.788;2022-09-01T06:56:06;1.93;;;1.60;;
908;SDS011;441;51.192;6.788;2022-09-01T06:58:37;3.57;;;2.00;;
908;SDS011;441;51.192;6.788;2022-09-01T07:01:06;3.27;;;2.43;;
908;SDS011;441;51.192;6.788;2022-09-01T07:03:41;1.70;;;1.53;;
908;SDS011;441;51.192;6.788;2022-09-01T07:06:09;2.87;;;2.13;;
908;SDS011;441;51.192;6.788;2022-09-01T07:08:37;3.73;;;1.97;;
908;SDS011;441;51.192;6.788;2022-09-01T07:11:05;1.83;;;1.73;;
908;SDS011;441;51.192;6.788;2022-09-01T07:13:34;1.90;;;1.80;;
908;SDS011;441;51.192;6.788;2022-09-01T07:16:03;2.80;;;1.90;;
908;SDS011;441;51.192;6.788;2022-09-01T07:18:30;3.00;;;1.60;;
908;SDS011;441;51.192;6.788;2022-09-01T07:20:59;1.80;;;1.70;;
908;SDS011;441;51.192;6.788;2022-09-01T07:23:31;2.10;;;1.60;;
908;SDS011;441;51.192;6.788;2022-09-01T07:25:58;2.33;;;1.97;;
908;SDS011;441;51.192;6.788;2022-09-01T07:28:25;1.90;;;1.80;;
908;SDS011;441;51.192;6.788;2022-09-01T07:30:56;3.93;;;1.47;;
908;SDS011;441;51.192;6.788;2022-09-01T07:33:24;1.50;;;1.40;;
908;SDS011;441;51.192;6.788;2022-09-01T07:35:54;1.50;;;1.40;;
908;SDS011;441;51.192;6.788;2022-09-01T07:38:22;3.70;;;1.70;;
908;SDS011;441;51.192;6.788;2022-09-01T07:40:50;1.43;;;1.30;;
908;SDS011;441;51.192;6.788;2022-09-01T07:43:19;2.07;;;1.43;;
908;SDS011;441;51.192;6.788;2022-09-01T07:45:49;1.67;;;1.57;;
908;SDS011;441;51.192;6.788;2022-09-01T07:48:20;1.87;;;1.60;;
908;SDS011;441;51.192;6.788;2022-09-01T07:50:50;3.43;;;1.50;;
908;SDS011;441;51.192;6.788;2022-09-01T07:53:20;1.27;;;1.23;;
908;SDS011;441;51.192;6.788;2022-09-01T07:55:50;1.43;;;1.30;;
908;SDS011;441;51.192;6.788;2022-09-01T07:58:18;1.50;;;1.40;;
908;SDS011;441;51.192;6.788;2022-09-01T08:00:46;1.43;;;1.30;;
908;SDS011;441;51.192;6.788;2022-09-01T08:03:14;2.30;;;1.47;;
908;SDS011;441;51.192;6.788;2022-09-01T08:05:41;3.13;;;1.67;;
908;SDS011;441;51.192;6.788;2022-09-01T08:08:09;1.30;;;1.30;;
908;SDS011;441;51.192;6.788;2022-09-01T08:10:37;1.70;;;1.60;;
908;SDS011;441;51.192;6.788;2022-09-01T08:13:06;1.80;;;1.70;;
908;SDS011;441;51.192;6.788;2022-09-01T08:15:33;1.50;;;1.40;;
908;SDS011;441;51.192;6.788;2022-09-01T08:18:00;1.40;;;1.30;;
908;SDS011;441;51.192;6.788;2022-09-01T08:20:27;1.53;;;1.47;;
908;SDS011;441;51.192;6.788;2022-09-01T08:22:54;2.67;;;1.33;;
908;SDS011;441;51.192;6.788;2022-09-01T08:25:21;1.63;;;1.53;;
908;SDS011;441;51.192;6.788;2022-09-01T08:27:48;1.53;;;1.17;;
908;SDS011;441;51.192;6.788;2022-09-01T08:30:17;1.63;;;1.43;;
908;SDS011;441;51.192;6.788;2022-09-01T08:32:44;1.53;;;1.10;;
908;SDS011;441;51.192;6.788;2022-09-01T08:35:11;2.03;;;1.80;;
908;SDS011;441;51.192;6.788;2022-09-01T08:37:40;1.60;;;1.50;;
908;SDS011;441;51.192;6.788;2022-09-01T08:40:08;1.37;;;1.27;;
908;SDS011;441;51.192;6.788;2022-09-01T08:42:43;2.50;;;1.30;;
908;SDS011;441;51.192;6.788;2022-09-01T08:45:20;1.90;;;1.40;;
908;SDS011;441;51.192;6.788;2022-09-01T08:47:51;2.53;;;1.60;;
908;SDS011;441;51.192;6.788;2022-09-01T08:50:20;1.27;;;1.23;;
908;SDS011;441;51.192;6.788;2022-09-01T08:52:49;0.97;;;0.97;;
908;SDS011;441;51.192;6.788;2022-09-01T08:55:21;1.23;;;1.23;;
908;SDS011;441;51.192;6.788;2022-09-01T08:57:53;1.10;;;1.10;;
908;SDS011;441;51.192;6.788;2022-09-01T09:00:24;1.30;;;1.20;;
908;SDS011;441;51.192;6.788;2022-09-01T09:02:56;1.90;;;1.27;;
908;SDS011;441;51.192;6.788;2022-09-01T09:05:34;1.23;;;1.23;;
908;SDS011;441;51.192;6.788;2022-09-01T09:11:09;1.90;;;1.10;;
908;SDS011;441;51.192;6.788;2022-09-01T09:13:44;1.03;;;0.90;;
908;SDS011;441;51.192;6.788;2022-09-01T09:16:22;1.00;;;1.00;;
908;SDS011;441;51.192;6.788;2022-09-01T09:18:53;1.53;;;1.43;;
908;SDS011;441;51.192;6.788;2022-09-01T09:21:24;1.50;;;1.40;;
908;SDS011;441;51.192;6.788;2022-09-01T09:23:59;1.03;;;1.00;;
908;SDS011;441;51.192;6.788;2022-09-01T09:26:31;1.30;;;1.30;;
908;SDS011;441;51.192;6.788;2022-09-01T09:28:58;4.10;;;1.40;;
908;SDS011;441;51.192;6.788;2022-09-01T09:31:29;1.03;;;1.03;;
908;SDS011;441;51.192;6.788;2022-09-01T09:33:58;2.03;;;1.93;;
908;SDS011;441;51.192;6.788;2022-09-01T09:36:31;1.63;;;1.23;;
908;SDS011;441;51.192;6.788;2022-09-01T09:39:04;1.20;;;1.10;;
908;SDS011;441;51.192;6.788;2022-09-01T09:41:34;1.33;;;1.23;;
908;SDS011;441;51.192;6.788;2022-09-01T09:44:03;1.73;;;1.20;;
908;SDS011;441;51.192;6.788;2022-09-01T09:46:41;1.40;;;1.40;;
908;SDS011;441;51.192;6.788;2022-09-01T09:49:11;0.87;;;0.87;;
908;SDS011;441;51.192;6.788;2022-09-01T09:51:46;1.13;;;1.13;;
908;SDS011;441;51.192;6.788;2022-09-01T09:54:17;1.60;;;1.50;;
908;SDS011;441;51.192;6.788;2022-09-01T09:56:46;1.40;;;1.30;;
908;SDS011;441;51.192;6.788;2022-09-01T09:59:20;1.93;;;1.13;;
908;SDS011;441;51.192;6.788;2022-09-01T10:01:54;1.10;;;1.03;;
908;SDS011;441;51.192;6.788;2022-09-01T10:04:31;1.57;;;0.97;;
908;SDS011;441;51.192;6.788;2022-09-01T10:06:59;1.83;;;1.57;;
908;SDS011;441;51.192;6.788;2022-09-01T10:09:33;1.90;;;1.80;;
908;SDS011;441;51.192;6.788;2022-09-01T10:12:02;4.17;;;1.20;;
908;SDS011;441;51.192;6.788;2022-09-01T10:14:32;1.43;;;1.23;;
908;SDS011;441;51.192;6.788;2022-09-01T10:17:13;1.17;;;1.17;;
908;SDS011;441;51.192;6.788;2022-09-01T10:19:46;1.10;;;1.10;;
908;SDS011;441;51.192;6.788;2022-09-01T10:22:16;1.20;;;1.20;;
908;SDS011;441;51.192;6.788;2022-09-01T10:24:43;0.80;;;0.80;;
908;SDS011;441;51.192;6.788;2022-09-01T10:27:10;1.20;;;1.20;;
908;SDS011;441;51.192;6.788;2022-09-01T10:29:43;1.00;;;1.00;;
908;SDS011;441;51.192;6.788;2022-09-01T10:32:17;1.07;;;1.07;;
908;SDS011;441;51.192;6.788;2022-09-01T10:34:46;1.30;;;1.20;;
908;SDS011;441;51.192;6.788;2022-09-01T10:37:14;1.00;;;1.00;;
908;SDS011;441;51.192;6.788;2022-09-01T10:42:57;1.37;;;1.00;;
908;SDS011;441;51.192;6.788;2022-09-01T10:45:47;1.53;;;1.43;;
908;SDS011;441;51.192;6.788;2022-09-01T10:48:26;1.53;;;1.43;;
908;SDS011;441;51.192;6.788;2022-09-01T10:53:56;1.00;;;1.00;;
908;SDS011;441;51.192;6.788;2022-09-01T10:56:25;0.90;;;0.90;;
908;SDS011;441;51.192;6.788;2022-09-01T10:59:06;1.00;;;0.93;;
908;SDS011;441;51.192;6.788;2022-09-01T11:07:41;0.90;;;0.90;;
908;SDS011;441;51.192;6.788;2022-09-01T11:10:16;0.87;;;0.87;;
908;SDS011;441;51.192;6.788;2022-09-01T11:13:04;1.40;;;1.30;;
908;SDS011;441;51.192;6.788;2022-09-01T11:15:53;1.00;;;1.00;;
908;SDS011;441;51.192;6.788;2022-09-01T11:18:24;1.70;;;1.10;;
908;SDS011;441;51.192;6.788;2022-09-01T11:20:53;1.10;;;1.10;;
908;SDS011;441;51.192;6.788;2022-09-01T11:23:22;2.00;;;1.50;;
908;SDS011;441;51.192;6.788;2022-09-01T11:25:52;1.33;;;1.33;;
908;SDS011;441;51.192;6.788;2022-09-01T11:31:10;3.30;;;1.57;;
908;SDS011;441;51.192;6.788;2022-09-01T11:33:51;1.73;;;1.20;;
908;SDS011;441;51.192;6.788;2022-09-01T11:36:27;1.17;;;1.03;;
908;SDS011;441;51.192;6.788;2022-09-01T11:39:03;1.00;;;1.00;;
908;SDS011;441;51.192;6.788;2022-09-01T11:41:34;1.10;;;1.10;;
908;SDS011;441;51.192;6.788;2022-09-01T11:44:12;1.20;;;1.20;;
908;SDS011;441;51.192;6.788;2022-09-01T11:46:43;1.00;;;1.00;;
908;SDS011;441;51.192;6.788;2022-09-01T11:49:22;1.30;;;1.30;;
908;SDS011;441;51.192;6.788;2022-09-01T11:51:53;1.33;;;1.23;;
908;SDS011;441;51.192;6.788;2022-09-01T11:54:21;1.00;;;1.00;;
908;SDS011;441;51.192;6.788;2022-09-01T11:56:49;1.20;;;1.20;;
908;SDS011;441;51.192;6.788;2022-09-01T11:59:28;1.23;;;1.23;;
908;SDS011;441;51.192;6.788;2022-09-01T12:01:56;1.57;;;1.07;;
908;SDS011;441;51.192;6.788;2022-09-01T12:04:25;1.40;;;1.30;;
908;SDS011;441;51.192;6.788;2022-09-01T12:06:58;1.20;;;1.20;;
908;SDS011;441;51.192;6.788;2022-09-01T12:09:34;1.40;;;1.30;;
908;SDS011;441;51.192;6.788;2022-09-01T12:12:02;3.47;;;1.30;;
908;SDS011;441;51.192;6.788;2022-09-01T12:14:30;3.60;;;1.57;;
908;SDS011;441;51.192;6.788;2022-09-01T12:16:58;1.07;;;1.07;;
908;SDS011;441;51.192;6.788;2022-09-01T12:19:29;1.63;;;1.40;;
908;SDS011;441;51.192;6.788;2022-09-01T12:21:59;1.40;;;1.40;;
908;SDS011;441;51.192;6.788;2022-09-01T12:24:27;1.50;;;1.40;;
908;SDS011;441;51.192;6.788;2022-09-01T12:26:59;1.90;;;1.80;;
908;SDS011;441;51.192;6.788;2022-09-01T12:29:27;1.77;;;1.67;;
908;SDS011;441;51.192;6.788;2022-09-01T12:31:56;1.60;;;1.33;;
908;SDS011;441;51.192;6.788;2022-09-01T12:37:11;1.13;;;1.13;;
908;SDS011;441;51.192;6.788;2022-09-01T12:39:46;1.53;;;1.53;;
908;SDS011;441;51.192;6.788;2022-09-01T12:42:22;1.63;;;1.53;;
908;SDS011;441;51.192;6.788;2022-09-01T12:44:52;1.40;;;1.30;;
908;SDS011;441;51.192;6.788;2022-09-01T12:53:13;1.10;;;1.10;;
908;SDS011;441;51.192;6.788;2022-09-01T12:55:51;1.70;;;1.70;;
908;SDS011;441;51.192;6.788;2022-09-01T12:58:47;2.00;;;1.90;;
908;SDS011;441;51.192;6.788;2022-09-01T13:01:26;1.63;;;1.30;;
908;SDS011;441;51.192;6.788;2022-09-01T13:07:01;1.37;;;1.37;;
908;SDS011;441;51.192;6.788;2022-09-01T13:09:29;1.63;;;1.50;;
908;SDS011;441;51.192;6.788;2022-09-01T13:14:42;3.43;;;1.50;;
908;SDS011;441;51.192;6.788;2022-09-01T13:17:08;2.40;;;2.30;;
908;SDS011;441;51.192;6.788;2022-09-01T13:19:36;1.33;;;1.33;;
908;SDS011;441;51.192;6.788;2022-09-01T13:22:05;1.83;;;1.73;;
908;SDS011;441;51.192;6.788;2022-09-01T13:24:32;1.43;;;1.40;;
908;SDS011;441;51.192;6.788;2022-09-01T13:26:59;2.00;;;1.90;;
908;SDS011;441;51.192;6.788;2022-09-01T13:29:25;2.10;;;2.00;;
908;SDS011;441;51.192;6.788;2022-09-01T13:31:52;1.50;;;1.50;;
908;SDS011;441;51.192;6.788;2022-09-01T13:34:19;1.67;;;1.67;;
908;SDS011;441;51.192;6.788;2022-09-01T13:36:46;1.70;;;1.60;;
908;SDS011;441;51.192;6.788;2022-09-01T13:39:14;1.53;;;1.53;;
908;SDS011;441;51.192;6.788;2022-09-01T13:41:42;1.97;;;1.87;;
908;SDS011;441;51.192;6.788;2022-09-01T13:44:08;2.53;;;1.70;;
908;SDS011;441;51.192;6.788;2022-09-01T13:46:35;1.67;;;1.57;;
908;SDS011;441;51.192;6.788;2022-09-01T13:49:03;2.53;;;1.53;;
908;SDS011;441;51.192;6.788;2022-09-01T13:51:29;1.90;;;1.80;;
908;SDS011;441;51.192;6.788;2022-09-01T13:53:56;2.10;;;2.00;;
908;SDS011;441;51.192;6.788;2022-09-01T13:56:25;1.50;;;1.50;;
908;SDS011;441;51.192;6.788;2022-09-01T13:58:52;1.93;;;1.83;;
908;SDS011;441;51.192;6.788;2022-09-01T14:01:19;2.07;;;1.43;;
908;SDS011;441;51.192;6.788;2022-09-01T14:03:47;1.23;;;1.23;;
908;SDS011;441;51.192;6.788;2022-09-01T14:06:14;5.73;;;2.23;;
908;SDS011;441;51.192;6.788;2022-09-01T14:08:41;1.80;;;1.70;;
908;SDS011;441;51.192;6.788;2022-09-01T14:11:14;1.50;;;1.50;;
908;SDS011;441;51.192;6.788;2022-09-01T14:13:43;1.30;;;1.30;;
908;SDS011;441;51.192;6.788;2022-09-01T14:16:11;1.57;;;1.50;;
908;SDS011;441;51.192;6.788;2022-09-01T14:18:39;1.57;;;1.57;;
908;SDS011;441;51.192;6.788;2022-09-01T14:21:09;1.87;;;1.77;;
908;SDS011;441;51.192;6.788;2022-09-01T14:23:39;1.57;;;1.57;;
908;SDS011;441;51.192;6.788;2022-09-01T14:26:07;1.30;;;1.30;;
908;SDS011;441;51.192;6.788;2022-09-01T14:28:35;1.80;;;1.70;;
908;SDS011;441;51.192;6.788;2022-09-01T14:31:07;1.70;;;1.70;;
908;SDS011;441;51.192;6.788;2022-09-01T14:33:36;1.67;;;1.57;;
908;SDS011;441;51.192;6.788;2022-09-01T14:36:04;1.97;;;1.87;;
908;SDS011;441;51.192;6.788;2022-09-01T14:38:32;1.73;;;1.63;;
908;SDS011;441;51.192;6.788;2022-09-01T14:40:59;2.27;;;1.90;;
908;SDS011;441;51.192;6.788;2022-09-01T14:43:26;1.90;;;1.80;;
908;SDS011;441;51.192;6.788;2022-09-01T14:46:03;1.83;;;1.80;;
908;SDS011;441;51.192;6.788;2022-09-01T14:48:34;2.00;;;1.87;;
908;SDS011;441;51.192;6.788;2022-09-01T14:51:02;1.93;;;1.83;;
908;SDS011;441;51.192;6.788;2022-09-01T14:53:29;2.03;;;1.83;;
908;SDS011;441;51.192;6.788;2022-09-01T14:55:57;2.10;;;2.00;;
908;SDS011;441;51.192;6.788;2022-09-01T14:58:25;2.07;;;1.97;;
908;SDS011;441;51.192;6.788;2022-09-01T15:00:54;1.83;;;1.73;;
908;SDS011;441;51.192;6.788;2022-09-01T15:03:23;2.93;;;2.00;;
908;SDS011;441;51.192;6.788;2022-09-01T15:05:52;1.87;;;1.70;;
908;SDS011;441;51.192;6.788;2022-09-01T15:08:20;3.70;;;1.80;;
908;SDS011;441;51.192;6.788;2022-09-01T15:10:47;1.63;;;1.63;;
908;SDS011;441;51.192;6.788;2022-09-01T15:13:14;1.80;;;1.80;;
908;SDS011;441;51.192;6.788;2022-09-01T15:15:41;2.30;;;1.80;;
908;SDS011;441;51.192;6.788;2022-09-01T15:18:08;2.07;;;1.97;;
908;SDS011;441;51.192;6.788;2022-09-01T15:20:38;1.90;;;1.80;;
908;SDS011;441;51.192;6.788;2022-09-01T15:23:15;1.83;;;1.70;;
908;SDS011;441;51.192;6.788;2022-09-01T15:25:43;2.00;;;1.90;;
908;SDS011;441;51.192;6.788;2022-09-01T15:28:11;1.70;;;1.60;;
908;SDS011;441;51.192;6.788;2022-09-01T15:30:39;2.00;;;1.80;;
908;SDS011;441;51.192;6.788;2022-09-01T15:33:08;2.30;;;2.20;;
908;SDS011;441;51.192;6.788;2022-09-01T15:35:35;1.90;;;1.80;;
908;SDS011;441;51.192;6.788;2022-09-01T15:38:03;2.00;;;1.90;;
908;SDS011;441;51.192;6.788;2022-09-01T15:40:32;2.30;;;2.10;;
908;SDS011;441;51.192;6.788;2022-09-01T15:42:59;2.40;;;2.30;;
908;SDS011;441;51.192;6.788;2022-09-01T15:45:26;2.23;;;2.13;;
908;SDS011;441;51.192;6.788;2022-09-01T15:47:54;1.97;;;1.90;;
908;SDS011;441;51.192;6.788;2022-09-01T15:50:21;2.30;;;2.30;;
908;SDS011;441;51.192;6.788;2022-09-01T15:52:50;2.27;;;2.20;;
908;SDS011;441;51.192;6.788;2022-09-01T15:55:19;2.10;;;2.00;;
908;SDS011;441;51.192;6.788;2022-09-01T15:57:50;2.30;;;2.20;;
908;SDS011;441;51.192;6.788;2022-09-01T16:00:19;2.20;;;2.10;;
908;SDS011;441;51.192;6.788;2022-09-01T16:02:47;1.83;;;1.83;;
908;SDS011;441;51.192;6.788;2022-09-01T16:05:14;1.90;;;1.80;;
908;SDS011;441;51.192;6.788;2022-09-01T16:07:42;4.20;;;2.13;;
908;SDS011;441;51.192;6.788;2022-09-01T16:10:10;1.93;;;1.90;;
908;SDS011;441;51.192;6.788;2022-09-01T16:12:38;1.93;;;1.93;;
908;SDS011;441;51.192;6.788;2022-09-01T16:15:09;2.57;;;2.37;;
908;SDS011;441;51.192;6.788;2022-09-01T16:17:41;2.13;;;2.03;;
908;SDS011;441;51.192;6.788;2022-09-01T16:20:19;2.37;;;2.27;;
908;SDS011;441;51.192;6.788;2022-09-01T16:22:50;2.03;;;1.93;;
908;SDS011;441;51.192;6.788;2022-09-01T16:25:22;2.10;;;2.03;;
908;SDS011;441;51.192;6.788;2022-09-01T16:27:52;2.53;;;2.43;;
908;SDS011;441;51.192;6.788;2022-09-01T16:30:22;2.17;;;2.07;;
908;SDS011;441;51.192;6.788;2022-09-01T16:32:51;2.43;;;2.33;;